Time;durP1;ratioP1;P1;durP2;ratioP2;P2;SDS_P1;SDS_P2;PMS_P1;PMS_P2;Temp;Humidity;BMP_temperature;BMP_pressure;BME280_temperature;BME280_humidity;BME280_pressure;Samples;Min_cycle;Max_cycle;Signal;HPM_P1;HPM_P2
2023/05/09 00:01:30;;;;;;;11.20;6.17;;;9.50;99.90;;;;;;6217829;23;20176;-94
2023/05/09 00:03:57;;;;;;;8.17;6.03;;;9.50;99.90;;;;;;6217995;23;20204;-95
2023/05/09 00:06:24;;;;;;;9.53;6.23;;;9.40;99.90;;;;;;6217127;23;20599;-95
2023/05/09 00:08:51;;;;;;;11.07;6.70;;;9.40;99.90;;;;;;6217153;23;20226;-92
2023/05/09 00:11:20;;;;;;;8.90;6.27;;;9.40;99.90;;;;;;6217198;23;20201;-94
2023/05/09 00:13:47;;;;;;;11.53;6.53;;;9.40;99.90;;;;;;6217775;23;20175;-95
2023/05/09 00:16:14;;;;;;;7.07;6.00;;;9.40;99.90;;;;;;6217381;23;20229;-94
2023/05/09 00:18:42;;;;;;;10.13;6.60;;;9.30;99.90;;;;;;6217389;23;20197;-93
2023/05/09 00:21:09;;;;;;;10.30;6.53;;;9.30;99.90;;;;;;6216832;23;20182;-94
2023/05/09 00:23:36;;;;;;;10.57;6.20;;;9.30;99.90;;;;;;6217295;23;20231;-92
2023/05/09 00:26:03;;;;;;;10.67;6.23;;;9.20;99.90;;;;;;6216990;23;20176;-93
2023/05/09 00:28:32;;;;;;;11.67;6.77;;;9.20;99.90;;;;;;6217367;23;20182;-94
2023/05/09 00:30:59;;;;;;;9.67;6.30;;;9.10;99.90;;;;;;6216898;23;20199;-94
2023/05/09 00:33:26;;;;;;;8.57;6.43;;;9.10;99.90;;;;;;6217010;23;20198;-93
2023/05/09 00:35:53;;;;;;;8.80;6.77;;;9.00;99.90;;;;;;6216614;23;20198;-94
2023/05/09 00:38:20;;;;;;;9.63;6.80;;;8.90;99.90;;;;;;6216655;23;20693;-94
2023/05/09 00:40:47;;;;;;;10.23;6.90;;;8.90;99.90;;;;;;6217065;23;20167;-94
2023/05/09 00:43:13;;;;;;;12.20;7.00;;;8.80;99.90;;;;;;6216650;23;20167;-94
2023/05/09 00:45:42;;;;;;;11.90;6.87;;;8.80;99.90;;;;;;6216909;23;20171;-94
2023/05/09 00:48:09;;;;;;;10.10;7.13;;;8.80;99.90;;;;;;6217178;23;20175;-92
2023/05/09 00:50:36;;;;;;;10.43;7.47;;;8.70;99.90;;;;;;6216428;23;20187;-93
2023/05/09 00:53:03;;;;;;;12.87;7.20;;;8.70;99.90;;;;;;6216510;23;20171;-94
2023/05/09 00:55:31;;;;;;;10.97;7.20;;;8.70;99.90;;;;;;6216973;23;20172;-93
2023/05/09 00:57:58;;;;;;;10.93;6.73;;;8.60;1.00;;;;;;6217104;23;20170;-94
2023/05/09 01:00:25;;;;;;;11.70;7.73;;;8.60;1.00;;;;;;6216866;23;20193;-93
2023/05/09 01:02:55;;;;;;;10.40;6.70;;;8.50;1.00;;;;;;6216958;23;20174;-92
2023/05/09 01:05:25;;;;;;;11.53;7.20;;;8.50;1.00;;;;;;6216721;23;20208;-93
2023/05/09 01:08:00;;;;;;;12.53;7.07;;;8.50;1.00;;;;;;6216852;23;20177;-93
2023/05/09 01:10:34;;;;;;;11.87;6.33;;;8.50;1.00;;;;;;6217021;23;20176;-93
2023/05/09 01:13:08;;;;;;;9.93;7.00;;;8.40;1.00;;;;;;6216346;23;20604;-92
2023/05/09 01:15:39;;;;;;;12.43;7.03;;;8.40;1.00;;;;;;6216971;23;20155;-93
2023/05/09 01:18:16;;;;;;;10.50;7.37;;;8.30;1.00;;;;;;6216526;23;20151;-94
2023/05/09 01:20:45;;;;;;;11.13;6.83;;;8.30;1.00;;;;;;6217241;23;20159;-93
2023/05/09 01:23:42;;;;;;;10.50;6.77;;;8.30;1.00;;;;;;6216497;23;20221;-94
2023/05/09 01:26:16;;;;;;;10.97;6.93;;;8.20;1.00;;;;;;6067173;23;20193;-94
2023/05/09 01:29:05;;;;;;;10.53;7.00;;;8.20;1.00;;;;;;6067379;23;20516;-95
2023/05/09 01:31:37;;;;;;;12.33;6.70;;;8.20;1.00;;;;;;6067021;23;20203;-94
2023/05/09 01:34:07;;;;;;;11.37;7.23;;;8.10;1.00;;;;;;6067200;23;20161;-93
2023/05/09 01:36:36;;;;;;;9.83;6.83;;;8.10;1.00;;;;;;6066625;23;20202;-92
2023/05/09 01:39:05;;;;;;;9.23;6.80;;;8.10;1.00;;;;;;6067224;23;20174;-93
2023/05/09 01:41:37;;;;;;;11.60;6.90;;;8.00;1.00;;;;;;6067350;23;20175;-93
2023/05/09 01:44:07;;;;;;;9.67;6.97;;;8.00;1.00;;;;;;6067320;23;20181;-92
2023/05/09 01:46:37;;;;;;;10.07;7.07;;;7.90;1.00;;;;;;6067439;23;20153;-92
2023/05/09 01:49:07;;;;;;;12.77;7.20;;;7.90;1.00;;;;;;6067016;23;20586;-93
2023/05/09 01:51:36;;;;;;;8.70;6.50;;;7.80;1.00;;;;;;6066917;23;20196;-93
2023/05/09 01:54:05;;;;;;;9.53;7.00;;;7.80;1.00;;;;;;6067222;23;20638;-92
2023/05/09 01:56:34;;;;;;;12.10;7.10;;;7.80;1.00;;;;;;6069178;23;20172;-93
2023/05/09 01:59:02;;;;;;;10.30;6.87;;;7.80;1.00;;;;;;6068841;23;20256;-92
2023/05/09 02:01:30;;;;;;;10.97;7.00;;;7.70;1.00;;;;;;6068802;23;20169;-93
2023/05/09 02:03:59;;;;;;;8.33;6.30;;;7.70;1.00;;;;;;6193085;23;20173;-92
2023/05/09 02:06:28;;;;;;;11.30;7.33;;;7.70;1.00;;;;;;6218017;23;20173;-93
2023/05/09 02:08:56;;;;;;;12.33;7.73;;;7.70;1.00;;;;;;6218536;23;20175;-94
2023/05/09 02:11:23;;;;;;;10.07;6.77;;;7.60;1.00;;;;;;6218039;23;20690;-93
2023/05/09 02:13:50;;;;;;;9.73;6.67;;;7.50;1.00;;;;;;6218644;23;20248;-93
2023/05/09 02:16:17;;;;;;;11.60;7.20;;;7.50;1.00;;;;;;6218096;23;20177;-95
2023/05/09 02:18:44;;;;;;;9.57;6.93;;;7.50;1.00;;;;;;6218176;23;20178;-93
2023/05/09 02:21:12;;;;;;;10.80;7.13;;;7.50;1.00;;;;;;6217905;23;20342;-94
2023/05/09 02:23:39;;;;;;;9.53;6.90;;;7.40;1.00;;;;;;6218049;23;20195;-93
2023/05/09 02:26:06;;;;;;;8.77;6.77;;;7.40;1.00;;;;;;6218242;23;20635;-94
2023/05/09 02:28:33;;;;;;;8.77;6.60;;;7.40;1.00;;;;;;6218402;23;20169;-93
2023/05/09 02:31:05;;;;;;;9.90;6.83;;;7.40;1.00;;;;;;6217739;23;20685;-93
2023/05/09 02:33:34;;;;;;;9.00;6.53;;;7.30;1.00;;;;;;6217845;23;20153;-93
2023/05/09 02:36:02;;;;;;;10.87;6.87;;;7.30;1.00;;;;;;6217704;23;20204;-92
2023/05/09 02:38:30;;;;;;;8.90;7.00;;;7.30;1.00;;;;;;6217840;23;20163;-93
2023/05/09 02:40:57;;;;;;;8.23;6.00;;;7.20;1.00;;;;;;6218048;23;20251;-94
2023/05/09 02:43:24;;;;;;;8.27;6.37;;;7.20;1.00;;;;;;6217857;23;20169;-93
2023/05/09 02:45:50;;;;;;;9.57;7.03;;;7.20;1.00;;;;;;6217910;23;20179;-92
2023/05/09 02:48:17;;;;;;;9.30;7.27;;;7.10;1.00;;;;;;6217929;23;20165;-92
2023/05/09 02:50:44;;;;;;;8.80;6.47;;;7.00;1.00;;;;;;6217923;23;20189;-93
2023/05/09 02:53:11;;;;;;;9.90;6.60;;;7.00;1.00;;;;;;6218189;23;20179;-93
2023/05/09 02:55:39;;;;;;;9.33;6.70;;;7.00;10.10;;;;;;6217577;23;20255;-92
2023/05/09 02:58:06;;;;;;;13.53;7.57;;;6.90;32.10;;;;;;6217506;23;20592;-92
2023/05/09 03:00:33;;;;;;;9.70;6.17;;;7.00;39.30;;;;;;6217840;23;20499;-92
2023/05/09 03:03:00;;;;;;;10.83;6.77;;;6.90;55.30;;;;;;6217194;23;20165;-92
2023/05/09 03:05:27;;;;;;;7.87;6.33;;;6.90;91.60;;;;;;6217533;23;20648;-93
2023/05/09 03:07:54;;;;;;;7.77;6.03;;;6.80;88.90;;;;;;6218251;23;20204;-91
2023/05/09 03:10:21;;;;;;;9.80;6.77;;;6.80;99.90;;;;;;6217263;23;20223;-93
2023/05/09 03:12:49;;;;;;;9.87;6.40;;;6.80;99.90;;;;;;6217374;23;20175;-92
2023/05/09 03:15:16;;;;;;;9.70;6.33;;;6.80;99.90;;;;;;6217765;23;20177;-93
2023/05/09 03:17:43;;;;;;;10.27;6.13;;;6.80;99.90;;;;;;6217333;23;20171;-92
2023/05/09 03:20:10;;;;;;;8.20;6.53;;;6.70;99.90;;;;;;6217438;23;20176;-92
2023/05/09 03:22:37;;;;;;;12.50;6.50;;;6.70;99.90;;;;;;6217644;23;20182;-92
2023/05/09 03:25:05;;;;;;;8.43;6.20;;;6.70;99.90;;;;;;6217784;23;20169;-92
2023/05/09 03:27:32;;;;;;;10.80;6.33;;;6.70;99.90;;;;;;6217391;23;20179;-92
2023/05/09 03:30:00;;;;;;;12.67;6.60;;;6.70;99.90;;;;;;6217699;23;20172;-92
2023/05/09 03:32:27;;;;;;;8.83;6.23;;;6.70;99.90;;;;;;6217028;23;20182;-91
2023/05/09 03:34:54;;;;;;;9.73;6.53;;;6.70;99.90;;;;;;6217230;23;20168;-92
2023/05/09 03:37:21;;;;;;;8.33;6.10;;;6.80;99.90;;;;;;6217557;23;20690;-92
2023/05/09 03:39:48;;;;;;;11.33;6.40;;;6.80;99.90;;;;;;6217316;23;20173;-91
2023/05/09 03:42:15;;;;;;;8.90;6.00;;;6.80;99.90;;;;;;6217510;23;20618;-93
2023/05/09 03:44:42;;;;;;;10.30;6.43;;;6.90;99.90;;;;;;6217552;23;20260;-93
2023/05/09 03:47:10;;;;;;;10.27;6.20;;;7.00;99.90;;;;;;6216921;23;20172;-93
2023/05/09 03:49:37;;;;;;;9.50;5.60;;;7.30;99.90;;;;;;6217453;23;20571;-92
2023/05/09 03:52:03;;;;;;;7.23;5.43;;;7.80;99.90;;;;;;6217393;23;20678;-93
2023/05/09 03:54:30;;;;;;;8.57;5.70;;;8.40;99.90;;;;;;6217851;23;20175;-93
2023/05/09 03:56:57;;;;;;;7.23;5.30;;;9.00;99.50;;;;;;6217940;23;20174;-93
2023/05/09 03:59:24;;;;;;;6.40;5.00;;;9.50;1.00;;;;;;6217714;23;20179;-94
2023/05/09 04:01:51;;;;;;;7.90;5.10;;;10.10;1.00;;;;;;6217279;23;20248;-94
2023/05/09 04:04:19;;;;;;;6.43;4.87;;;10.60;1.00;;;;;;6217571;23;20209;-94
2023/05/09 04:06:46;;;;;;;7.77;5.30;;;11.00;1.00;;;;;;6217250;23;20620;-94
2023/05/09 04:09:14;;;;;;;9.60;5.13;;;11.40;1.00;;;;;;6217672;23;20177;-93
2023/05/09 04:11:41;;;;;;;9.43;5.47;;;11.80;1.00;;;;;;6217018;23;20188;-95
2023/05/09 04:14:07;;;;;;;9.47;5.20;;;12.10;1.00;;;;;;6217638;23;20252;-95
2023/05/09 04:16:34;;;;;;;7.87;4.83;;;12.40;1.00;;;;;;6217332;23;20177;-93
2023/05/09 04:19:01;;;;;;;8.17;5.40;;;12.60;1.00;;;;;;6216866;23;20172;-93
2023/05/09 04:21:30;;;;;;;7.30;4.90;;;12.90;1.00;;;;;;6216115;23;20632;-95
2023/05/09 04:23:57;;;;;;;7.13;5.10;;;13.20;1.00;;;;;;6216648;23;20203;-94
2023/05/09 04:26:24;;;;;;;10.63;6.10;;;13.50;99.90;;;;;;6217074;23;20243;-95
2023/05/09 04:28:51;;;;;;;7.40;4.77;;;13.80;99.90;;;;;;6217440;23;20178;-94
2023/05/09 04:31:18;;;;;;;11.23;5.17;;;14.00;99.90;;;;;;6216787;23;20275;-96
2023/05/09 04:33:45;;;;;;;7.43;4.63;;;14.20;99.90;;;;;;6217405;23;20178;-94
2023/05/09 04:36:12;;;;;;;7.23;4.63;;;14.30;99.90;;;;;;6217839;23;20204;-96
2023/05/09 04:38:40;;;;;;;8.02;4.70;;;14.50;99.90;;;;;;6219494;23;20168;-96
2023/05/09 04:41:07;;;;;;;12.60;5.60;;;14.70;99.90;;;;;;6219594;23;20202;-95
2023/05/09 04:43:34;;;;;;;8.15;4.65;;;14.80;99.90;;;;;;6220326;23;20201;-95
2023/05/09 04:46:01;;;;;;;8.02;4.80;;;14.90;99.90;;;;;;6218572;23;20620;-95
2023/05/09 04:48:28;;;;;;;7.93;4.97;;;14.90;99.90;;;;;;6215753;23;20171;-95
2023/05/09 04:50:55;;;;;;;12.03;5.57;;;14.90;99.90;;;;;;6221090;23;20190;-96
2023/05/09 04:53:22;;;;;;;9.53;5.23;;;14.60;99.90;;;;;;6231117;23;20166;-95
2023/05/09 04:55:50;;;;;;;6.73;4.90;;;14.20;99.90;;;;;;6218659;23;20173;-95
2023/05/09 04:58:17;;;;;;;6.50;4.80;;;13.70;99.90;;;;;;6216627;23;20892;-93
2023/05/09 05:00:44;;;;;;;7.60;5.30;;;13.30;99.90;;;;;;6217799;23;20250;-95
2023/05/09 05:03:11;;;;;;;10.23;4.90;;;12.90;99.90;;;;;;6220558;23;20216;-96
2023/05/09 05:05:39;;;;;;;9.40;4.90;;;12.50;99.90;;;;;;6217257;23;20174;-95
2023/05/09 05:08:06;;;;;;;6.60;4.87;;;12.30;99.90;;;;;;6218724;23;20532;-93
2023/05/09 05:10:32;;;;;;;6.30;4.70;;;12.10;99.90;;;;;;6217528;23;20195;-95
2023/05/09 05:13:01;;;;;;;7.90;5.47;;;11.90;99.90;;;;;;6218010;23;20180;-95
2023/05/09 05:15:27;;;;;;;7.83;5.07;;;11.80;99.90;;;;;;6215752;23;20177;-96
2023/05/09 05:17:54;;;;;;;6.83;5.10;;;11.70;99.90;;;;;;6216422;23;20615;-95
2023/05/09 05:20:21;;;;;;;8.83;5.40;;;11.60;99.90;;;;;;6216222;23;20227;-94
2023/05/09 05:22:48;;;;;;;8.50;5.47;;;11.50;99.90;;;;;;6217310;23;20171;-94
2023/05/09 05:25:16;;;;;;;6.43;4.90;;;11.50;99.90;;;;;;6217216;23;20161;-96
2023/05/09 05:27:43;;;;;;;8.53;5.30;;;11.50;99.90;;;;;;6217137;23;20673;-96
2023/05/09 05:30:14;;;;;;;7.53;4.87;;;11.50;99.90;;;;;;6217903;23;20179;-95
2023/05/09 05:32:41;;;;;;;8.57;6.13;;;11.40;99.90;;;;;;6219294;23;20262;-95
2023/05/09 05:35:10;;;;;;;21.07;13.87;;;11.40;99.90;;;;;;6220807;23;20258;-96
2023/05/09 05:37:37;;;;;;;28.03;18.77;;;11.40;99.90;;;;;;6219598;23;20157;-96
2023/05/09 05:40:04;;;;;;;13.47;7.80;;;11.40;99.90;;;;;;6219766;23;20175;-96
2023/05/09 05:42:31;;;;;;;8.20;5.33;;;11.40;99.90;;;;;;6221180;23;20220;-96
2023/05/09 05:45:03;;;;;;;6.53;5.10;;;11.50;99.90;;;;;;6220433;23;20172;-96
2023/05/09 05:47:31;;;;;;;7.30;5.03;;;11.50;99.90;;;;;;6219927;23;20202;-96
2023/05/09 05:49:58;;;;;;;10.30;5.30;;;11.50;99.90;;;;;;6221369;23;20276;-96
2023/05/09 05:52:26;;;;;;;8.10;5.60;;;11.50;99.90;;;;;;6220721;23;20199;-96
2023/05/09 05:54:53;;;;;;;9.20;6.30;;;11.60;99.90;;;;;;6222065;23;20171;-94
2023/05/09 05:57:20;;;;;;;7.43;4.80;;;11.60;99.90;;;;;;6222131;23;20176;-96
2023/05/09 05:59:47;;;;;;;8.57;5.70;;;11.70;99.90;;;;;;6222688;23;20210;-95
2023/05/09 06:02:14;;;;;;;7.27;4.97;;;11.70;99.90;;;;;;6222509;23;20542;-96
2023/05/09 06:04:42;;;;;;;5.47;4.50;;;11.80;99.90;;;;;;6226176;23;20168;-96
2023/05/09 06:07:09;;;;;;;7.97;5.33;;;11.80;99.90;;;;;;6223771;23;20174;-96
2023/05/09 06:09:36;;;;;;;7.83;5.07;;;11.90;99.90;;;;;;6222546;23;20176;-96
2023/05/09 06:12:03;;;;;;;8.90;5.40;;;12.00;99.90;;;;;;6222027;23;20271;-96
2023/05/09 06:14:30;;;;;;;8.37;5.20;;;12.00;99.90;;;;;;6224997;23;20696;-96
2023/05/09 06:16:58;;;;;;;8.63;5.00;;;12.10;99.90;;;;;;6224818;23;20175;-96
2023/05/09 06:19:25;;;;;;;10.73;5.67;;;12.20;99.90;;;;;;6224800;23;20199;-94
2023/05/09 06:21:53;;;;;;;7.70;5.40;;;12.20;99.90;;;;;;6223031;23;20671;-96
2023/05/09 06:24:20;;;;;;;8.87;5.20;;;12.30;99.90;;;;;;6221839;23;20209;-96
2023/05/09 06:26:47;;;;;;;10.00;5.30;;;12.30;99.90;;;;;;6223713;23;20176;-96
2023/05/09 06:29:14;;;;;;;7.50;4.80;;;12.40;99.90;;;;;;6222244;23;20169;-96
2023/05/09 06:31:41;;;;;;;9.77;5.17;;;12.50;99.90;;;;;;6223574;23;20209;-96
2023/05/09 06:34:08;;;;;;;8.47;4.73;;;12.50;99.90;;;;;;6222592;23;20170;-95
2023/05/09 06:36:35;;;;;;;8.77;5.27;;;12.60;99.90;;;;;;6224129;23;20668;-96
2023/05/09 06:39:03;;;;;;;6.93;4.80;;;12.70;99.90;;;;;;6225588;23;20251;-96
2023/05/09 06:41:30;;;;;;;15.77;5.40;;;12.70;99.90;;;;;;6227220;23;20617;-96
2023/05/09 06:43:56;;;;;;;7.13;4.63;;;12.80;99.90;;;;;;6226029;23;20169;-96
2023/05/09 06:46:23;;;;;;;15.13;6.03;;;13.00;99.90;;;;;;6226657;23;20196;-96
2023/05/09 06:48:50;;;;;;;7.73;4.37;;;13.00;99.90;;;;;;6226873;23;20198;-96
2023/05/09 06:51:17;;;;;;;6.30;4.37;;;13.10;99.90;;;;;;6226714;23;20170;-96
2023/05/09 06:53:44;;;;;;;7.23;4.83;;;13.10;99.90;;;;;;6230506;23;20174;-96
2023/05/09 06:56:13;;;;;;;6.17;4.87;;;13.20;99.90;;;;;;6230861;23;20172;-96
2023/05/09 06:58:58;;;;;;;8.07;4.47;;;13.30;99.90;;;;;;6223468;23;20173;-96
2023/05/09 07:01:25;;;;;;;10.47;4.37;;;13.40;99.90;;;;;;6232591;23;20160;-96
2023/05/09 07:03:52;;;;;;;8.87;4.80;;;13.50;99.90;;;;;;6236829;23;20175;-96
2023/05/09 07:06:19;;;;;;;5.73;3.83;;;13.60;99.90;;;;;;6239907;23;20171;-96
2023/05/09 07:08:46;;;;;;;4.80;3.67;;;13.70;99.90;;;;;;6238854;22;20209;-96
2023/05/09 07:11:15;;;;;;;7.00;3.87;;;13.70;99.90;;;;;;6228941;22;20219;-96
2023/05/09 07:13:41;;;;;;;7.37;4.13;;;13.80;99.90;;;;;;6226207;23;20643;-96
2023/05/09 07:16:08;;;;;;;12.70;4.43;;;13.90;99.90;;;;;;6225996;23;20255;-95
2023/05/09 07:18:35;;;;;;;9.90;3.83;;;14.00;99.90;;;;;;6225295;23;20199;-96
2023/05/09 07:21:02;;;;;;;7.50;3.83;;;14.00;99.90;;;;;;6229682;23;20203;-95
2023/05/09 07:23:29;;;;;;;6.33;3.57;;;14.10;99.90;;;;;;6228751;23;20183;-95
2023/05/09 07:25:57;;;;;;;6.63;3.63;;;14.20;99.90;;;;;;6230230;23;20159;-94
2023/05/09 07:28:26;;;;;;;7.17;3.73;;;14.30;99.90;;;;;;6234207;23;20193;-96
2023/05/09 07:30:54;;;;;;;10.40;3.73;;;14.40;99.90;;;;;;6232837;23;20590;-95
2023/05/09 07:33:21;;;;;;;9.00;3.30;;;14.40;99.90;;;;;;6227193;23;20188;-96
2023/05/09 07:35:48;;;;;;;7.80;3.30;;;14.50;99.90;;;;;;6228294;23;20255;-96
2023/05/09 07:38:17;;;;;;;9.17;2.90;;;14.60;99.90;;;;;;6233029;23;20182;-95
2023/05/09 07:40:46;;;;;;;5.30;3.13;;;14.60;99.90;;;;;;6227629;23;20655;-96
2023/05/09 07:43:16;;;;;;;9.03;3.30;;;14.70;99.90;;;;;;6224444;23;20196;-96
2023/05/09 07:45:45;;;;;;;5.33;3.20;;;14.70;99.90;;;;;;6228370;23;20183;-96
2023/05/09 07:48:11;;;;;;;4.33;2.70;;;14.70;99.90;;;;;;6233669;23;20208;-96
2023/05/09 07:50:40;;;;;;;8.73;2.67;;;14.70;99.90;;;;;;6236791;23;20172;-96
2023/05/09 07:53:08;;;;;;;5.50;3.03;;;14.80;99.90;;;;;;6233204;23;20192;-95
2023/05/09 07:55:35;;;;;;;9.27;3.33;;;14.90;99.90;;;;;;6226188;23;20173;-95
2023/05/09 07:58:02;;;;;;;20.23;3.47;;;14.90;99.90;;;;;;6225671;23;20246;-95
2023/05/09 08:00:29;;;;;;;3.43;2.90;;;15.00;99.90;;;;;;6228978;23;20616;-96
2023/05/09 08:02:59;;;;;;;9.77;3.58;;;15.00;99.90;;;;;;6225735;23;20205;-95
2023/05/09 08:05:26;;;;;;;7.53;3.17;;;15.10;99.90;;;;;;6236251;23;20160;-96
2023/05/09 08:07:53;;;;;;;6.32;2.78;;;15.10;99.90;;;;;;6206581;23;20205;-95
2023/05/09 08:10:22;;;;;;;4.63;2.78;;;15.20;99.90;;;;;;6232717;23;20227;-95
2023/05/09 08:12:49;;;;;;;10.25;3.30;;;15.20;99.90;;;;;;6227275;23;20242;-96
2023/05/09 08:15:15;;;;;;;12.93;3.20;;;15.30;99.90;;;;;;6234239;23;20172;-95
2023/05/09 08:17:42;;;;;;;5.00;3.22;;;15.30;99.90;;;;;;6230432;23;20166;-96
2023/05/09 08:20:12;;;;;;;4.18;3.03;;;15.40;99.90;;;;;;6231231;23;20198;-94
2023/05/09 08:22:39;;;;;;;15.07;3.15;;;15.40;99.90;;;;;;6225316;23;20193;-95
2023/05/09 08:25:07;;;;;;;8.27;2.97;;;15.40;99.90;;;;;;6225153;23;20230;-96
2023/05/09 08:27:34;;;;;;;10.52;3.17;;;15.50;99.90;;;;;;6224341;23;20611;-95
2023/05/09 08:30:01;;;;;;;7.43;3.50;;;15.50;99.90;;;;;;6223177;23;20199;-94
2023/05/09 08:32:28;;;;;;;7.78;2.85;;;15.50;99.90;;;;;;6228074;23;20187;-96
2023/05/09 08:34:55;;;;;;;7.80;3.30;;;15.60;99.90;;;;;;6230743;23;20198;-96
2023/05/09 08:37:23;;;;;;;6.78;3.00;;;15.60;99.90;;;;;;6227172;23;20207;-93
2023/05/09 08:39:50;;;;;;;10.18;3.47;;;15.70;99.90;;;;;;6223293;23;20224;-95
2023/05/09 08:42:21;;;;;;;7.05;2.92;;;15.70;99.90;;;;;;6224144;23;20179;-93
2023/05/09 08:44:49;;;;;;;3.58;2.80;;;15.80;99.90;;;;;;6227543;23;20179;-96
2023/05/09 08:47:16;;;;;;;6.30;3.15;;;15.80;99.90;;;;;;6224259;23;20550;-96
2023/05/09 08:49:44;;;;;;;5.82;2.70;;;15.90;99.90;;;;;;6228161;23;20255;-96
2023/05/09 08:52:11;;;;;;;11.52;2.70;;;16.00;99.90;;;;;;6227740;23;20208;-96
2023/05/09 08:54:39;;;;;;;8.27;3.17;;;16.00;99.90;;;;;;6228852;23;20527;-96
2023/05/09 08:57:06;;;;;;;7.53;2.72;;;16.00;99.90;;;;;;6224011;22;20207;-95
2023/05/09 08:59:36;;;;;;;4.95;2.90;;;16.00;99.90;;;;;;6229960;23;20203;-96
2023/05/09 09:04:51;;;;;;;4.20;2.42;;;16.00;99.90;;;;;;6230147;22;20184;-95
2023/05/09 09:07:22;;;;;;;7.38;3.08;;;16.10;99.90;;;;;;6229326;22;20272;-96
2023/05/09 09:12:21;;;;;;;8.52;2.70;;;16.10;99.90;;;;;;6252765;22;20195;-96
2023/05/09 09:14:59;;;;;;;4.72;2.60;;;16.20;99.90;;;;;;6231749;22;20197;-96
2023/05/09 09:17:28;;;;;;;4.88;2.63;;;16.20;99.90;;;;;;6234193;22;20215;-96
2023/05/09 09:19:58;;;;;;;6.97;2.28;;;16.30;99.90;;;;;;6238308;23;20152;-96
2023/05/09 09:30:14;;;;;;;8.50;2.30;;;16.30;99.90;;;;;;6223839;22;20544;-95
2023/05/09 09:32:41;;;;;;;9.38;2.50;;;16.40;99.90;;;;;;6234805;22;20200;-96
2023/05/09 09:37:43;;;;;;;6.55;2.83;;;16.50;99.90;;;;;;6232941;22;20204;-96
2023/05/09 09:55:50;;;;;;;8.63;3.55;;;16.70;99.90;;;;;;6231702;22;21307;-94
2023/05/09 09:58:17;;;;;;;7.97;3.50;;;16.90;99.90;;;;;;6224697;22;20204;-95
2023/05/09 10:08:30;;;;;;;4.13;2.95;;;17.00;99.90;;;;;;6229103;22;20192;-96
2023/05/09 10:21:54;;;;;;;4.65;3.40;;;17.30;99.90;;;;;;6216931;22;20233;-96
2023/05/09 10:24:28;;;;;;;6.00;4.28;;;17.40;99.90;;;;;;6230361;22;20196;-96
2023/05/09 10:32:23;;;;;;;11.98;5.32;;;17.50;99.90;;;;;;6224061;22;20418;-95
2023/05/09 10:34:53;;;;;;;6.40;4.72;;;17.60;99.90;;;;;;6225874;22;20283;-93
2023/05/09 10:47:39;;;;;;;8.05;4.60;;;17.70;99.90;;;;;;6223832;22;20222;-95
2023/05/09 10:50:07;;;;;;;9.90;3.95;;;17.80;99.90;;;;;;6237925;23;20153;-96
2023/05/09 10:55:04;;;;;;;6.20;3.95;;;17.90;99.90;;;;;;6232377;22;20157;-96
2023/05/09 10:57:32;;;;;;;14.20;4.90;;;17.90;99.90;;;;;;6234674;22;20207;-95
2023/05/09 11:02:37;;;;;;;13.05;4.13;;;17.90;99.90;;;;;;6226647;22;20275;-96
2023/05/09 11:34:31;;;;;;;7.35;3.20;;;18.60;96.40;;;;;;6141223;22;1242205;-96
2023/05/09 11:37:12;;;;;;;9.57;2.50;;;18.60;85.50;;;;;;6182910;23;20181;-96
2023/05/09 11:50:04;;;;;;;5.53;2.28;;;18.50;92.90;;;;;;6166360;23;21295;-96
2023/05/09 12:02:53;;;;;;;4.60;2.70;;;18.60;90.70;;;;;;6167595;23;20302;-95
2023/05/09 12:05:22;;;;;;;6.28;2.90;;;18.70;73.30;;;;;;6171768;23;20262;-96
2023/05/09 12:20:49;;;;;;;4.63;2.45;;;18.80;90.20;;;;;;6163327;23;20168;-96
2023/05/09 12:23:18;;;;;;;8.75;2.67;;;18.90;84.00;;;;;;6173939;23;20197;-93
2023/05/09 12:34:04;;;;;;;5.40;2.75;;;19.00;87.50;;;;;;6158419;23;20212;31
2023/05/09 12:36:49;;;;;;;3.00;2.30;;;19.10;88.00;;;;;;6156601;23;20211;31
2023/05/09 13:00:51;;;;;;;6.13;2.42;;;19.20;78.40;;;;;;6175207;23;20209;-96
2023/05/09 13:05:57;;;;;;;6.57;2.53;;;19.30;76.90;;;;;;6152632;23;20185;-87
2023/05/09 13:08:24;;;;;;;6.65;2.55;;;19.30;75.20;;;;;;6155543;23;21335;-95
2023/05/09 13:21:14;;;;;;;9.25;3.10;;;19.60;76.30;;;;;;6159753;23;20213;-95
2023/05/09 13:23:43;;;;;;;3.78;2.88;;;19.60;57.90;;;;;;6170488;23;20245;-95
2023/05/09 13:28:45;;;;;;;8.35;2.60;;;19.50;75.40;;;;;;6169083;23;20188;-96
2023/05/09 13:36:17;;;;;;;7.78;2.85;;;19.60;75.00;;;;;;6177848;23;20185;-96
2023/05/09 13:46:22;;;;;;;9.13;2.80;;;19.70;73.30;;;;;;6169308;23;20198;-96
2023/05/09 13:48:49;;;;;;;4.85;2.70;;;19.70;54.90;;;;;;6167464;23;20205;-91
2023/05/09 13:53:53;;;;;;;6.20;2.50;;;19.70;71.20;;;;;;6166252;23;20203;-96
2023/05/09 13:56:20;;;;;;;7.13;2.88;;;19.70;51.40;;;;;;6177233;23;20201;-90
2023/05/09 14:03:57;;;;;;;4.95;2.53;;;19.60;68.30;;;;;;6165586;23;21357;-94
2023/05/09 14:11:36;;;;;;;7.22;2.80;;;19.50;65.30;;;;;;6163961;23;20189;-93
2023/05/09 14:14:03;;;;;;;5.88;2.63;;;19.50;47.20;;;;;;6163677;23;20224;-96
2023/05/09 14:19:02;;;;;;;6.88;2.63;;;19.50;63.90;;;;;;6166638;23;20193;-96
2023/05/09 14:24:05;;;;;;;8.20;2.80;;;19.50;65.90;;;;;;6160860;23;20189;-96
2023/05/09 14:34:19;;;;;;;9.98;2.78;;;19.50;64.10;;;;;;6165567;23;20194;-96
2023/05/09 14:49:38;;;;;;;5.88;2.65;;;19.40;59.20;;;;;;6160407;23;20197;-88
2023/05/09 14:54:41;;;;;;;3.85;2.47;;;19.40;58.60;;;;;;6163151;23;20207;-94
2023/05/09 15:10:10;;;;;;;4.00;2.30;;;19.30;57.20;;;;;;6172488;23;20211;-96
2023/05/09 15:15:14;;;;;;;8.13;2.80;;;19.20;56.10;;;;;;6157900;23;20531;-96
2023/05/09 15:35:56;;;;;;;2.92;2.28;;;19.40;55.40;;;;;;6158387;23;20173;-96
2023/05/09 15:38:23;;;;;;;7.55;2.58;;;19.40;51.60;;;;;;6161183;23;20232;-96
2023/05/09 15:46:01;;;;;;;5.03;2.35;;;19.30;52.30;;;;;;6172102;23;20186;-96
2023/05/09 15:53:40;;;;;;;4.03;2.40;;;19.20;51.60;;;;;;6171248;23;20240;-89
2023/05/09 16:06:28;;;;;;;8.35;3.35;;;19.10;49.20;;;;;;6160436;23;20193;-96
2023/05/09 16:27:01;;;;;;;7.90;3.15;;;19.00;49.10;;;;;;6162310;23;20202;-96
2023/05/09 16:29:28;;;;;;;6.13;2.90;;;19.00;44.40;;;;;;6173705;23;20616;-96
2023/05/09 16:31:54;;;;;;;3.55;2.35;;;18.90;39.80;;;;;;6171853;23;20170;-96
2023/05/09 16:34:21;;;;;;;7.07;2.88;;;18.80;40.40;;;;;;6173882;23;20171;-96
2023/05/09 16:36:48;;;;;;;3.58;2.75;;;18.80;39.00;;;;;;6170863;23;20209;-95
2023/05/09 16:39:16;;;;;;;6.68;2.70;;;18.80;31.00;;;;;;6180089;23;20190;-96
2023/05/09 16:41:43;;;;;;;5.75;2.78;;;18.80;33.30;;;;;;6172245;23;20169;-95
2023/05/09 16:44:11;;;;;;;6.50;2.78;;;18.90;40.80;;;;;;6162650;23;20233;-96
2023/05/09 16:46:38;;;;;;;7.22;2.90;;;18.90;41.30;;;;;;6180186;23;20155;-96
2023/05/09 16:49:05;;;;;;;8.52;2.90;;;19.00;30.00;;;;;;6177092;23;20182;-96
2023/05/09 16:51:32;;;;;;;15.85;3.50;;;19.10;32.10;;;;;;6181291;23;20170;-96
2023/05/09 16:53:59;;;;;;;6.70;3.05;;;19.20;38.30;;;;;;6178275;23;20174;-96
2023/05/09 16:56:26;;;;;;;5.25;3.03;;;19.30;30.90;;;;;;6182387;23;20182;-96
2023/05/09 16:58:53;;;;;;;5.72;2.90;;;19.40;39.40;;;;;;6166755;23;21223;-96
2023/05/09 17:09:07;;;;;;;7.03;4.03;;;20.10;45.30;;;;;;6156354;23;21047;-94
2023/05/09 17:11:34;;;;;;;5.75;2.60;;;20.20;30.20;;;;;;6141234;23;20602;-96
2023/05/09 17:19:12;;;;;;;8.23;2.80;;;20.30;39.50;;;;;;6177912;23;20236;-96
2023/05/09 17:21:40;;;;;;;5.60;2.40;;;20.40;24.50;;;;;;6172570;23;20177;-96
2023/05/09 17:24:09;;;;;;;8.00;2.70;;;20.40;32.50;;;;;;6164759;23;20175;-96
2023/05/09 17:26:37;;;;;;;4.25;2.28;;;20.50;28.00;;;;;;6175604;23;20166;-96
2023/05/09 17:29:05;;;;;;;5.75;2.25;;;20.50;25.40;;;;;;6178993;23;20206;-96
2023/05/09 17:31:32;;;;;;;8.55;2.88;;;20.50;50.30;;;;;;6169711;23;20647;-95
2023/05/09 17:34:00;;;;;;;4.10;2.55;;;20.50;21.80;;;;;;6163394;23;20197;-95
2023/05/09 17:36:27;;;;;;;5.20;2.90;;;20.60;28.80;;;;;;6165722;23;20221;-96
2023/05/09 17:38:53;;;;;;;6.55;2.30;;;20.60;29.50;;;;;;6172459;23;20186;-96
2023/05/09 17:41:22;;;;;;;7.65;2.67;;;20.50;17.10;;;;;;6170561;23;20222;-96
2023/05/09 17:43:50;;;;;;;5.93;2.45;;;19.90;28.60;;;;;;6166196;23;20174;-96
2023/05/09 17:46:17;;;;;;;5.97;2.50;;;19.20;17.90;;;;;;6169133;23;20174;-95
2023/05/09 17:48:46;;;;;;;5.82;3.08;;;18.40;21.10;;;;;;6167879;23;20245;-96
2023/05/09 17:51:13;;;;;;;5.13;2.50;;;18.00;18.30;;;;;;6166076;23;20174;-95
2023/05/09 17:53:40;;;;;;;3.58;2.65;;;17.50;27.50;;;;;;6167479;23;20182;-96
2023/05/09 18:01:19;;;;;;;7.93;2.95;;;16.70;36.70;;;;;;6163791;23;20206;-96
2023/05/09 18:03:47;;;;;;;4.88;3.17;;;16.50;32.00;;;;;;6177524;23;20178;-95
2023/05/09 18:06:13;;;;;;;7.13;3.15;;;16.30;23.50;;;;;;6175995;23;20205;-96
2023/05/09 18:08:40;;;;;;;5.47;2.88;;;16.10;20.50;;;;;;6177644;23;20198;-96
2023/05/09 18:11:07;;;;;;;8.07;3.85;;;16.00;40.40;;;;;;6175143;23;20194;-96
2023/05/09 18:16:09;;;;;;;9.82;3.30;;;15.70;38.80;;;;;;6175582;23;20209;-96
2023/05/09 18:21:13;;;;;;;4.45;3.00;;;15.50;61.80;;;;;;6161417;23;20201;-96
2023/05/09 18:23:40;;;;;;;9.82;2.83;;;15.40;25.60;;;;;;6163745;23;20188;-94